createdAt,value
2022-12-20T00:00:08.160Z,50.30
2022-12-20T00:02:50.905Z,48.40
2022-12-20T00:05:19.882Z,50.80
2022-12-20T00:07:48.874Z,42.70
2022-12-20T00:10:19.658Z,45.20
2022-12-20T00:12:49.255Z,45.90
2022-12-20T00:15:18.252Z,45.20
2022-12-20T00:18:01.125Z,47.10
2022-12-20T00:20:43.892Z,40.00
2022-12-20T00:23:12.633Z,47.50
2022-12-20T00:25:41.912Z,46.80
2022-12-20T00:28:11.309Z,45.50
2022-12-20T00:30:40.598Z,50.70
2022-12-20T00:33:10.630Z,53.70
2022-12-20T00:35:43.640Z,45.30
2022-12-20T00:38:12.682Z,44.00
2022-12-20T00:40:42.105Z,45.20
2022-12-20T00:43:11.745Z,41.40
2022-12-20T00:45:41.239Z,45.10
2022-12-20T00:48:10.060Z,48.50
2022-12-20T00:50:39.070Z,41.80
2022-12-20T00:53:10.215Z,46.90
2022-12-20T00:55:47.000Z,43.10
2022-12-20T01:00:58.902Z,40.40
2022-12-20T01:03:28.983Z,43.40
2022-12-20T01:06:01.285Z,47.10
2022-12-20T01:08:31.488Z,43.80
2022-12-20T01:11:36.111Z,43.80
2022-12-20T01:14:08.941Z,47.50
2022-12-20T01:16:51.390Z,45.70
2022-12-20T01:19:20.405Z,42.20
2022-12-20T01:21:49.759Z,43.80
2022-12-20T01:24:21.009Z,43.30
2022-12-20T01:26:50.218Z,40.50
2022-12-20T01:29:34.500Z,51.90
2022-12-20T01:32:17.525Z,41.80
2022-12-20T01:34:47.179Z,53.60
2022-12-20T01:37:30.337Z,44.20
2022-12-20T01:39:59.695Z,51.90
2022-12-20T01:42:42.536Z,46.30
2022-12-20T01:45:30.531Z,45.20
2022-12-20T01:48:00.651Z,52.30
2022-12-20T01:50:29.816Z,51.80
2022-12-20T01:53:00.709Z,44.60
2022-12-20T01:55:30.120Z,42.00
2022-12-20T01:58:15.052Z,49.70
2022-12-20T02:00:45.107Z,50.70
2022-12-20T02:03:33.160Z,41.50
2022-12-20T02:06:22.909Z,42.10
2022-12-20T02:09:07.314Z,42.00
2022-12-20T02:11:58.510Z,47.60
2022-12-20T02:15:01.477Z,43.70
2022-12-20T02:17:45.749Z,41.90
2022-12-20T02:20:47.723Z,51.10
2022-12-20T02:23:49.556Z,47.20
2022-12-20T02:26:56.726Z,42.20
2022-12-20T02:29:31.092Z,43.30
2022-12-20T02:32:01.162Z,46.90
2022-12-20T02:34:33.490Z,53.20
2022-12-20T02:37:02.659Z,47.70
2022-12-20T02:39:34.430Z,48.20
2022-12-20T02:42:11.393Z,47.70
2022-12-20T02:45:18.791Z,51.90
2022-12-20T02:48:09.461Z,55.30
2022-12-20T02:50:46.501Z,54.90
2022-12-20T02:53:30.211Z,56.00
2022-12-20T02:56:35.077Z,46.70
2022-12-20T02:59:26.325Z,49.70
2022-12-20T03:01:56.666Z,51.20
2022-12-20T03:04:29.399Z,48.30
2022-12-20T03:07:02.063Z,49.70
2022-12-20T03:09:46.197Z,58.30
2022-12-20T03:12:16.967Z,56.60
2022-12-20T03:14:46.461Z,60.30
2022-12-20T03:17:16.327Z,61.50
2022-12-20T03:19:45.683Z,73.40
2022-12-20T03:22:28.067Z,83.40
2022-12-20T03:24:57.165Z,57.50
2022-12-20T03:27:30.778Z,65.60
2022-12-20T03:30:01.002Z,65.10
2022-12-20T03:32:32.631Z,56.90
2022-12-20T03:35:01.969Z,57.80
2022-12-20T03:37:48.846Z,60.00
2022-12-20T03:40:17.974Z,57.10
2022-12-20T03:42:47.153Z,55.40
2022-12-20T03:45:16.718Z,60.70
2022-12-20T03:47:59.601Z,62.80
2022-12-20T03:50:29.916Z,60.40
2022-12-20T03:52:58.896Z,61.40
2022-12-20T03:55:45.292Z,57.00
2022-12-20T03:58:15.413Z,56.00
2022-12-20T04:00:58.227Z,56.20
2022-12-20T04:03:56.163Z,58.50
2022-12-20T04:06:25.428Z,61.50
2022-12-20T04:09:08.244Z,54.20
2022-12-20T04:11:56.270Z,63.60
2022-12-20T04:14:25.774Z,67.90
2022-12-20T04:16:54.704Z,58.70
2022-12-20T04:19:24.881Z,63.00
2022-12-20T04:22:00.828Z,60.90
2022-12-20T04:24:41.039Z,66.00
2022-12-20T04:27:20.838Z,65.50
2022-12-20T04:29:51.100Z,69.10
2022-12-20T04:32:21.083Z,72.60
2022-12-20T04:35:05.366Z,74.60
2022-12-20T04:37:39.568Z,67.20
2022-12-20T04:40:23.358Z,80.00
2022-12-20T04:43:10.686Z,70.50
2022-12-20T04:45:39.599Z,69.90
2022-12-20T04:51:29.112Z,68.80
2022-12-20T04:53:58.275Z,69.90
2022-12-20T04:56:47.800Z,68.70
2022-12-20T04:59:21.926Z,74.60
2022-12-20T05:01:53.553Z,70.30
2022-12-20T05:04:41.341Z,69.70
2022-12-20T05:07:10.701Z,73.10
2022-12-20T05:09:40.936Z,74.30
2022-12-20T05:12:23.366Z,66.60
2022-12-20T05:14:52.944Z,69.10
2022-12-20T05:17:23.231Z,66.20
2022-12-20T05:20:07.803Z,69.50
2022-12-20T05:23:08.692Z,66.80
2022-12-20T05:26:08.877Z,64.40
2022-12-20T05:28:38.641Z,69.60
2022-12-20T05:31:08.286Z,71.10
2022-12-20T05:33:37.559Z,66.90
2022-12-20T05:36:07.081Z,66.50
2022-12-20T05:38:36.218Z,67.80
2022-12-20T05:41:20.687Z,68.30
2022-12-20T05:44:05.855Z,71.70
2022-12-20T05:46:49.561Z,70.70
2022-12-20T05:49:22.656Z,64.80
2022-12-20T05:51:51.961Z,69.40
2022-12-20T05:54:26.694Z,64.00
2022-12-20T05:57:04.208Z,66.40
2022-12-20T05:59:36.876Z,69.30
2022-12-20T06:02:07.646Z,70.20
2022-12-20T06:04:38.552Z,69.10
2022-12-20T06:07:14.623Z,65.00
2022-12-20T06:09:45.349Z,57.90
2022-12-20T06:12:16.963Z,64.30
2022-12-20T06:14:47.331Z,64.20
2022-12-20T06:17:16.714Z,66.50
2022-12-20T06:19:46.211Z,63.50
2022-12-20T06:22:17.793Z,69.10
2022-12-20T06:24:50.633Z,62.20
2022-12-20T06:27:37.261Z,74.10
2022-12-20T06:30:11.189Z,65.00
2022-12-20T06:33:08.092Z,68.90
2022-12-20T06:35:36.864Z,66.10
2022-12-20T06:38:06.894Z,61.00
2022-12-20T06:40:37.770Z,67.10
2022-12-20T06:43:07.089Z,69.70
2022-12-20T06:45:49.809Z,62.70
2022-12-20T06:48:32.719Z,66.10
2022-12-20T06:51:01.491Z,63.50
2022-12-20T06:53:30.370Z,58.50
2022-12-20T06:56:12.893Z,66.90
2022-12-20T06:58:41.631Z,68.60
2022-12-20T07:01:10.565Z,64.60
2022-12-20T07:03:53.341Z,71.10
2022-12-20T07:06:22.369Z,68.70
2022-12-20T07:08:51.597Z,70.30
2022-12-20T07:11:20.380Z,65.60
2022-12-20T07:14:02.995Z,61.70
2022-12-20T07:16:32.906Z,69.70
2022-12-20T07:19:02.400Z,67.40
2022-12-20T07:21:44.875Z,64.40
2022-12-20T07:24:13.715Z,69.00
2022-12-20T07:26:45.071Z,71.10
2022-12-20T07:29:15.906Z,69.30
2022-12-20T07:31:45.681Z,67.20
2022-12-20T07:34:14.759Z,72.00
2022-12-20T07:36:44.240Z,74.00
2022-12-20T07:39:26.696Z,71.50
2022-12-20T07:42:13.194Z,67.30
2022-12-20T07:44:58.597Z,63.90
2022-12-20T07:47:27.818Z,68.60
2022-12-20T07:49:57.646Z,67.60
2022-12-20T07:52:29.774Z,70.10
2022-12-20T07:55:03.321Z,70.30
2022-12-20T07:57:45.185Z,72.40
2022-12-20T08:00:15.488Z,75.70
2022-12-20T08:03:07.279Z,74.20
2022-12-20T08:05:54.159Z,77.80
2022-12-20T08:08:41.364Z,69.80
2022-12-20T08:11:11.199Z,68.30
2022-12-20T08:13:46.196Z,63.20
2022-12-20T08:16:16.059Z,65.00
2022-12-20T08:18:45.157Z,61.50
2022-12-20T08:21:15.199Z,67.80
2022-12-20T08:23:44.355Z,62.80
2022-12-20T08:26:27.362Z,62.80
2022-12-20T08:28:56.455Z,75.60
2022-12-20T08:31:45.841Z,73.90
2022-12-20T08:34:32.098Z,74.60
2022-12-20T08:37:01.165Z,70.10
2022-12-20T08:39:43.490Z,66.00
2022-12-20T08:42:26.137Z,69.90
2022-12-20T08:45:09.172Z,64.60
2022-12-20T08:47:38.111Z,61.30
2022-12-20T08:50:10.417Z,57.70
2022-12-20T08:52:43.819Z,70.70
2022-12-20T08:55:13.249Z,58.30
2022-12-20T08:57:43.426Z,63.90
2022-12-20T09:00:25.779Z,62.90
2022-12-20T09:03:10.334Z,68.40
2022-12-20T09:05:53.353Z,56.10
2022-12-20T09:08:22.412Z,60.00
2022-12-20T09:11:04.796Z,68.50
2022-12-20T09:13:39.485Z,60.50
2022-12-20T09:16:14.157Z,66.10
2022-12-20T09:18:43.780Z,65.00
2022-12-20T09:21:13.039Z,61.00
2022-12-20T09:23:57.139Z,65.00
2022-12-20T09:26:27.042Z,59.90
2022-12-20T09:29:09.298Z,62.30
2022-12-20T09:31:51.505Z,62.30
2022-12-20T09:34:34.074Z,69.10
2022-12-20T09:37:02.673Z,62.50
2022-12-20T09:39:31.453Z,65.00
2022-12-20T09:42:00.083Z,64.60
2022-12-20T09:44:39.401Z,58.20
2022-12-20T09:47:24.646Z,56.00
2022-12-20T09:49:57.697Z,55.30
2022-12-20T09:52:29.513Z,61.80
2022-12-20T09:55:40.151Z,75.40
2022-12-20T09:58:38.124Z,79.70
2022-12-20T10:01:25.558Z,71.80
2022-12-20T10:03:57.102Z,81.90
2022-12-20T10:07:01.483Z,73.50
2022-12-20T10:09:30.326Z,66.60
2022-12-20T10:12:32.168Z,64.90
2022-12-20T10:15:19.761Z,64.30
2022-12-20T10:18:10.872Z,62.10
2022-12-20T10:21:03.232Z,58.90
2022-12-20T10:23:45.873Z,58.10
2022-12-20T10:26:14.597Z,51.90
2022-12-20T10:28:44.455Z,68.00
2022-12-20T10:31:17.512Z,55.40
2022-12-20T10:33:47.110Z,60.30
2022-12-20T10:36:33.531Z,64.20
2022-12-20T10:39:15.836Z,74.70
2022-12-20T10:41:58.056Z,70.80
2022-12-20T10:44:30.920Z,65.30
2022-12-20T10:47:44.729Z,62.00
2022-12-20T10:50:13.344Z,72.10
2022-12-20T10:52:43.519Z,64.40
2022-12-20T10:55:36.283Z,70.50
2022-12-20T10:58:43.564Z,72.10
2022-12-20T11:01:20.299Z,82.60
2022-12-20T11:04:00.570Z,69.10
2022-12-20T11:06:38.554Z,70.40
2022-12-20T11:09:36.199Z,63.80
2022-12-20T11:12:17.314Z,72.00
2022-12-20T11:14:47.269Z,66.50
2022-12-20T11:17:29.827Z,72.50
2022-12-20T11:20:35.943Z,67.00
2022-12-20T11:23:26.372Z,74.40
2022-12-20T11:26:25.661Z,63.40
2022-12-20T11:29:11.284Z,73.10
2022-12-20T11:31:47.653Z,65.00
2022-12-20T11:34:40.534Z,64.80
2022-12-20T11:37:20.633Z,64.20
2022-12-20T11:40:19.149Z,60.70
2022-12-20T11:43:27.407Z,67.90
2022-12-20T11:46:24.361Z,71.70
2022-12-20T11:49:15.716Z,69.20
2022-12-20T11:52:00.478Z,70.30
2022-12-20T11:54:50.284Z,76.30
2022-12-20T11:58:09.062Z,67.10
2022-12-20T12:00:46.517Z,64.20
2022-12-20T12:03:18.693Z,75.70
2022-12-20T12:06:01.705Z,71.30
2022-12-20T12:08:45.642Z,73.70
2022-12-20T12:12:05.729Z,71.10
2022-12-20T12:14:58.828Z,85.20
2022-12-20T12:17:38.530Z,88.20
2022-12-20T12:20:41.517Z,77.40
2022-12-20T12:23:36.164Z,76.00
2022-12-20T12:26:12.677Z,73.30
2022-12-20T12:31:17.246Z,69.70
2022-12-20T12:34:09.883Z,74.80
2022-12-20T12:36:52.412Z,64.20
2022-12-20T12:39:40.945Z,74.60
2022-12-20T12:42:49.269Z,74.80
2022-12-20T12:45:24.495Z,72.70
2022-12-20T12:48:01.920Z,63.60
2022-12-20T12:50:48.675Z,63.50
2022-12-20T12:53:37.326Z,62.00
2022-12-20T12:56:43.317Z,65.20
2022-12-20T12:59:13.581Z,73.90
2022-12-20T13:02:04.709Z,68.00
2022-12-20T13:05:13.032Z,77.80
2022-12-20T13:07:46.762Z,62.70
2022-12-20T13:10:15.548Z,80.00
2022-12-20T13:12:49.035Z,72.60
2022-12-20T13:15:33.309Z,66.80
2022-12-20T13:18:22.080Z,69.90
2022-12-20T13:21:30.119Z,70.40
2022-12-20T13:26:54.118Z,72.50
2022-12-20T13:31:56.475Z,69.20
2022-12-20T13:34:55.189Z,73.70
2022-12-20T13:37:59.669Z,83.40
2022-12-20T13:40:43.970Z,63.80
2022-12-20T13:43:46.653Z,67.60
2022-12-20T13:46:24.977Z,63.80
2022-12-20T13:49:03.830Z,78.60
2022-12-20T13:51:33.014Z,71.70
2022-12-20T13:54:08.128Z,77.90
2022-12-20T13:56:56.648Z,75.30
2022-12-20T13:59:35.502Z,79.00
2022-12-20T14:02:13.012Z,82.80
2022-12-20T14:04:46.425Z,74.00
2022-12-20T14:07:18.442Z,84.80
2022-12-20T14:09:54.960Z,87.90
2022-12-20T14:12:37.293Z,80.90
2022-12-20T14:15:25.947Z,91.10
2022-12-20T14:17:55.308Z,78.50
2022-12-20T14:20:29.787Z,73.80
2022-12-20T14:23:16.967Z,65.10
2022-12-20T14:26:02.353Z,75.70
2022-12-20T14:28:50.772Z,74.10
2022-12-20T14:31:32.713Z,78.50
2022-12-20T14:34:41.303Z,81.70
2022-12-20T14:37:34.112Z,74.50
2022-12-20T14:40:18.034Z,82.30
2022-12-20T14:42:47.915Z,72.60
2022-12-20T14:45:21.494Z,73.70
2022-12-20T14:50:41.263Z,86.00
2022-12-20T14:53:29.033Z,76.60
2022-12-20T14:55:58.939Z,87.20
2022-12-20T14:58:41.647Z,80.90
2022-12-20T15:01:27.984Z,85.30
2022-12-20T15:04:30.820Z,70.70
2022-12-20T15:07:41.852Z,77.30
2022-12-20T15:10:10.488Z,77.50
2022-12-20T15:12:42.438Z,75.40
2022-12-20T15:15:29.279Z,75.70
2022-12-20T15:17:58.981Z,81.70
2022-12-20T15:20:28.371Z,85.80
2022-12-20T15:22:57.679Z,85.60
2022-12-20T15:25:43.294Z,79.90
2022-12-20T15:28:26.063Z,84.20
2022-12-20T15:30:55.765Z,86.50
2022-12-20T15:33:40.853Z,90.30
2022-12-20T15:36:28.347Z,95.80
2022-12-20T15:39:15.298Z,80.50
2022-12-20T15:41:48.925Z,93.30
2022-12-20T15:44:25.825Z,92.60
2022-12-20T15:46:55.336Z,80.70
2022-12-20T15:49:28.313Z,96.00
2022-12-20T15:52:19.990Z,87.00
2022-12-20T15:55:02.611Z,93.70
2022-12-20T15:57:45.227Z,95.30
2022-12-20T16:00:27.608Z,84.40
2022-12-20T16:03:20.811Z,86.10
2022-12-20T16:05:54.704Z,93.30
2022-12-20T16:08:24.006Z,86.30
2022-12-20T16:10:53.207Z,89.50
2022-12-20T16:13:35.915Z,82.20
2022-12-20T16:16:06.011Z,94.20
2022-12-20T16:18:35.084Z,85.00
2022-12-20T16:21:04.140Z,86.90
2022-12-20T16:23:33.311Z,91.70
2022-12-20T16:26:02.663Z,95.50
2022-12-20T16:28:45.665Z,96.30
2022-12-20T16:31:45.035Z,88.70
2022-12-20T16:34:16.266Z,86.60
2022-12-20T16:36:58.470Z,91.40
2022-12-20T16:39:26.952Z,85.90
2022-12-20T16:41:55.971Z,84.10
2022-12-20T16:44:25.086Z,94.00
2022-12-20T16:46:54.031Z,94.20
2022-12-20T16:49:22.855Z,90.60
2022-12-20T16:51:51.631Z,86.30
2022-12-20T16:54:34.297Z,101.60
2022-12-20T16:57:03.366Z,97.70
2022-12-20T16:59:32.342Z,90.10
2022-12-20T17:02:02.036Z,110.00
2022-12-20T17:04:32.183Z,91.80
2022-12-20T17:07:14.683Z,91.40
2022-12-20T17:12:45.738Z,92.70
2022-12-20T17:15:32.390Z,92.60
2022-12-20T17:18:15.042Z,87.90
2022-12-20T17:20:43.749Z,99.60
2022-12-20T17:26:02.825Z,99.70
2022-12-20T17:28:31.826Z,95.50
2022-12-20T17:31:07.581Z,92.60
2022-12-20T17:33:36.718Z,94.70
2022-12-20T17:36:05.925Z,95.10
2022-12-20T17:38:51.132Z,93.00
2022-12-20T17:41:34.442Z,86.00
2022-12-20T17:44:05.060Z,99.20
2022-12-20T17:46:48.374Z,87.20
2022-12-20T17:49:31.565Z,100.40
2022-12-20T17:52:00.435Z,91.30
2022-12-20T17:54:36.847Z,100.30
2022-12-20T17:57:22.719Z,94.80
2022-12-20T18:00:05.821Z,95.30
2022-12-20T18:02:48.390Z,93.00
2022-12-20T18:05:17.721Z,92.00
2022-12-20T18:07:54.713Z,90.40
2022-12-20T18:10:23.955Z,81.50
2022-12-20T18:12:52.958Z,87.00
2022-12-20T18:15:22.881Z,90.60
2022-12-20T18:18:08.139Z,82.80
2022-12-20T18:20:38.239Z,84.40
2022-12-20T18:23:07.360Z,83.30
2022-12-20T18:25:49.860Z,83.70
2022-12-20T18:28:32.477Z,80.80
2022-12-20T18:31:03.000Z,74.40
2022-12-20T18:33:31.886Z,93.00
2022-12-20T18:36:21.131Z,80.30
2022-12-20T18:39:07.179Z,79.70
2022-12-20T18:41:36.082Z,94.20
2022-12-20T18:44:18.463Z,82.60
2022-12-20T18:46:47.088Z,84.40
2022-12-20T18:49:16.013Z,84.80
2022-12-20T18:51:45.424Z,81.40
2022-12-20T18:54:15.475Z,80.50
2022-12-20T18:56:59.063Z,86.70
2022-12-20T18:59:28.274Z,88.60
2022-12-20T19:01:57.658Z,85.30
2022-12-20T19:04:26.432Z,86.70
2022-12-20T19:06:55.091Z,80.00
2022-12-20T19:09:23.980Z,87.10
2022-12-20T19:11:56.997Z,75.50
2022-12-20T19:14:27.116Z,86.80
2022-12-20T19:16:55.975Z,84.40
2022-12-20T19:19:24.716Z,85.60
2022-12-20T19:21:53.137Z,83.60
2022-12-20T19:24:21.571Z,84.00
2022-12-20T19:26:50.501Z,77.10
2022-12-20T19:29:18.970Z,78.00
2022-12-20T19:31:47.975Z,85.10
2022-12-20T19:34:16.883Z,87.10
2022-12-20T19:36:48.601Z,76.60
2022-12-20T19:39:22.654Z,90.40
2022-12-20T19:42:22.376Z,86.10
2022-12-20T19:44:41.276Z,82.10
2022-12-20T19:47:09.772Z,77.60
2022-12-20T19:49:38.289Z,78.80
2022-12-20T19:52:07.875Z,80.20
2022-12-20T19:54:36.597Z,76.10
2022-12-20T19:57:19.022Z,72.70
2022-12-20T19:59:52.187Z,88.40
2022-12-20T20:04:52.858Z,78.90
2022-12-20T20:07:22.576Z,80.20
2022-12-20T20:09:52.235Z,79.60
2022-12-20T20:12:21.319Z,78.50
2022-12-20T20:14:49.864Z,84.60
2022-12-20T20:17:18.268Z,79.80
2022-12-20T20:19:52.047Z,79.90
2022-12-20T20:22:23.188Z,73.80
2022-12-20T20:24:52.274Z,84.40
2022-12-20T20:27:20.849Z,80.00
2022-12-20T20:29:50.515Z,80.30
2022-12-20T20:32:19.106Z,76.30
2022-12-20T20:34:47.904Z,70.20
2022-12-20T20:37:30.265Z,80.40
2022-12-20T20:39:58.641Z,67.20
2022-12-20T20:42:27.668Z,81.20
2022-12-20T20:44:56.289Z,79.00
2022-12-20T20:47:24.882Z,73.30
2022-12-20T20:49:53.339Z,80.20
2022-12-20T20:52:21.990Z,78.60
2022-12-20T20:54:50.509Z,77.40
2022-12-20T20:57:19.113Z,77.30
2022-12-20T20:59:47.848Z,75.80
2022-12-20T21:02:16.750Z,67.30
2022-12-20T21:05:07.143Z,82.20
2022-12-20T21:07:34.161Z,76.30
2022-12-20T21:10:03.408Z,71.90
2022-12-20T21:12:45.688Z,76.90
2022-12-20T21:15:24.519Z,70.30
2022-12-20T21:18:06.995Z,68.00
2022-12-20T21:20:37.299Z,71.60
2022-12-20T21:23:19.465Z,77.50
2022-12-20T21:25:58.221Z,68.70
2022-12-20T21:28:44.081Z,70.00
2022-12-20T21:31:15.226Z,74.40
2022-12-20T21:33:45.951Z,61.50
2022-12-20T21:36:28.201Z,62.40
2022-12-20T21:38:58.517Z,80.50
2022-12-20T21:41:28.873Z,75.20
2022-12-20T21:44:01.714Z,73.10
2022-12-20T21:46:32.346Z,71.30
2022-12-20T21:49:15.073Z,72.90
2022-12-20T21:51:44.179Z,64.20
2022-12-20T21:54:26.788Z,75.90
2022-12-20T21:56:56.668Z,80.70
2022-12-20T21:59:25.529Z,67.80
2022-12-20T22:01:55.004Z,66.90
2022-12-20T22:04:24.473Z,79.20
2022-12-20T22:06:53.276Z,74.60
2022-12-20T22:09:22.250Z,65.70
2022-12-20T22:11:51.055Z,62.40
2022-12-20T22:14:20.277Z,75.30
2022-12-20T22:16:49.102Z,72.80
2022-12-20T22:19:18.169Z,74.70
2022-12-20T22:21:48.814Z,81.60
2022-12-20T22:24:21.206Z,70.80
2022-12-20T22:26:49.934Z,75.60
2022-12-20T22:29:20.450Z,72.30
2022-12-20T22:31:50.983Z,65.70
2022-12-20T22:34:20.556Z,63.00
2022-12-20T22:36:49.085Z,69.30
2022-12-20T22:39:31.437Z,74.30
2022-12-20T22:42:00.433Z,75.00
2022-12-20T22:44:42.693Z,63.10
2022-12-20T22:47:24.943Z,81.60
2022-12-20T22:49:53.579Z,80.80
2022-12-20T22:52:22.615Z,81.80
2022-12-20T22:54:51.261Z,63.10
2022-12-20T22:57:19.879Z,70.50
2022-12-20T22:59:48.537Z,79.20
2022-12-20T23:02:17.738Z,78.30
2022-12-20T23:04:46.683Z,69.70
2022-12-20T23:07:15.348Z,77.50
2022-12-20T23:09:57.942Z,77.40
2022-12-20T23:12:59.576Z,72.10
2022-12-20T23:15:41.927Z,84.00
2022-12-20T23:18:24.128Z,68.60
2022-12-20T23:21:25.745Z,73.20
2022-12-20T23:24:08.672Z,72.00
2022-12-20T23:26:51.679Z,75.60
2022-12-20T23:29:20.785Z,70.80
2022-12-20T23:31:49.923Z,67.00
2022-12-20T23:34:32.717Z,80.30
2022-12-20T23:37:15.429Z,69.20
2022-12-20T23:39:44.424Z,81.20
2022-12-20T23:42:13.621Z,67.10
2022-12-20T23:44:42.432Z,71.60
2022-12-20T23:47:17.142Z,76.30
2022-12-20T23:49:48.061Z,71.50
2022-12-20T23:52:30.581Z,74.40
2022-12-20T23:54:59.752Z,69.00
2022-12-20T23:57:32.176Z,70.30
